Time;durP1;ratioP1;P1;durP2;ratioP2;P2;SDS_P1;SDS_P2;PMS_P1;PMS_P2;Temp;Humidity;BMP_temperature;BMP_pressure;BME280_temperature;BME280_humidity;BME280_pressure;Samples;Min_cycle;Max_cycle;Signal;HPM_P1;HPM_P2
2021/04/12 00:00:08;;;;;;;9.47;7.50;;;4.60;99.90;;;;;;5093695;28;20262;-63
2021/04/12 00:02:40;;;;;;;9.77;7.73;;;4.60;99.90;;;;;;5093915;28;20275;-64
2021/04/12 00:05:35;;;;;;;8.53;7.43;;;4.60;99.90;;;;;;5093759;28;20271;-63
2021/04/12 00:08:10;;;;;;;9.43;7.67;;;4.60;99.90;;;;;;5094350;28;20617;-63
2021/04/12 00:10:45;;;;;;;9.67;8.23;;;4.50;99.90;;;;;;5093612;28;20237;-63
2021/04/12 00:13:16;;;;;;;9.33;7.80;;;4.40;99.90;;;;;;5093703;28;20181;-63
2021/04/12 00:15:49;;;;;;;9.73;8.60;;;4.40;99.90;;;;;;5093608;28;20556;-63
2021/04/12 00:18:22;;;;;;;10.13;7.90;;;4.40;99.90;;;;;;5093505;28;20202;-63
2021/04/12 00:20:53;;;;;;;10.40;8.47;;;4.40;99.90;;;;;;5093052;28;20309;-63
2021/04/12 00:23:29;;;;;;;9.70;8.03;;;4.40;99.90;;;;;;5093511;28;20193;-63
2021/04/12 00:26:04;;;;;;;9.70;7.70;;;4.40;99.90;;;;;;5093307;28;20277;-64
2021/04/12 00:28:35;;;;;;;8.97;7.30;;;4.50;99.90;;;;;;5052751;28;20236;-64
2021/04/12 00:31:07;;;;;;;8.60;7.60;;;4.50;99.90;;;;;;5052977;28;20191;-63
2021/04/12 00:33:40;;;;;;;8.27;6.93;;;4.40;99.90;;;;;;5053346;28;20295;-63
2021/04/12 00:36:16;;;;;;;9.57;7.20;;;4.30;99.90;;;;;;5052764;28;20273;-64
2021/04/12 00:38:51;;;;;;;8.33;7.17;;;4.30;99.90;;;;;;5053143;28;20699;-64
2021/04/12 00:41:37;;;;;;;7.90;6.63;;;4.30;99.90;;;;;;5053236;28;20256;-63
2021/04/12 00:44:14;;;;;;;7.40;6.53;;;4.20;99.90;;;;;;5052754;28;20691;-64
2021/04/12 00:46:54;;;;;;;7.90;6.70;;;4.20;99.90;;;;;;5052653;28;20630;-64
2021/04/12 00:49:57;;;;;;;6.70;6.00;;;4.10;99.90;;;;;;5052736;28;20198;-63
2021/04/12 00:52:57;;;;;;;7.50;6.80;;;4.00;99.90;;;;;;5052585;28;20187;-64
2021/04/12 00:55:36;;;;;;;7.53;6.23;;;4.00;99.90;;;;;;5052854;28;20221;-64
2021/04/12 00:58:14;;;;;;;6.83;5.87;;;3.90;99.90;;;;;;5052691;28;20214;-63
2021/04/12 01:00:45;;;;;;;7.83;6.30;;;3.80;99.90;;;;;;5052812;28;20185;-63
2021/04/12 01:03:22;;;;;;;6.90;5.90;;;3.80;99.90;;;;;;5052707;28;20227;-63
2021/04/12 01:06:00;;;;;;;6.77;6.07;;;3.80;99.90;;;;;;5052299;28;20276;-64
2021/04/12 01:09:00;;;;;;;6.73;6.00;;;3.70;99.90;;;;;;5052575;28;20224;-63
2021/04/12 01:11:48;;;;;;;6.47;5.57;;;3.60;99.90;;;;;;5052679;28;20183;-64
2021/04/12 01:15:01;;;;;;;6.37;5.67;;;3.70;99.90;;;;;;5052643;28;20213;-64
2021/04/12 01:17:53;;;;;;;6.03;5.40;;;3.60;99.90;;;;;;5024794;28;20660;-65
2021/04/12 01:21:01;;;;;;;5.73;4.93;;;3.60;99.90;;;;;;5046841;28;20292;-64
2021/04/12 01:24:04;;;;;;;7.90;5.70;;;3.60;99.90;;;;;;5056796;28;20340;-64
2021/04/12 01:27:20;;;;;;;7.43;6.10;;;3.70;99.90;;;;;;5040075;28;20231;-64
2021/04/12 01:30:30;;;;;;;7.53;6.03;;;3.50;99.90;;;;;;5096889;28;20206;-64
2021/04/12 01:33:44;;;;;;;7.30;6.27;;;3.60;99.90;;;;;;5096488;28;20191;-63
2021/04/12 01:36:43;;;;;;;8.07;6.70;;;3.50;99.90;;;;;;5081911;28;20210;-65
2021/04/12 01:39:20;;;;;;;9.20;7.90;;;3.40;99.90;;;;;;5096328;28;20682;-64
2021/04/12 01:41:58;;;;;;;8.63;7.37;;;3.30;99.90;;;;;;5096659;28;20274;-64
2021/04/12 01:44:41;;;;;;;8.43;7.17;;;3.40;99.90;;;;;;5096313;28;20281;-64
2021/04/12 01:47:37;;;;;;;8.33;6.70;;;3.30;99.90;;;;;;5096539;28;20219;-65
2021/04/12 01:50:26;;;;;;;8.23;7.37;;;3.40;99.90;;;;;;5096096;28;20318;-64
2021/04/12 01:53:28;;;;;;;8.57;7.07;;;3.50;99.90;;;;;;5096304;28;20199;-64
2021/04/12 01:56:35;;;;;;;8.40;6.93;;;3.40;99.90;;;;;;5096071;28;20190;-64
2021/04/12 01:59:33;;;;;;;9.03;7.20;;;3.40;99.90;;;;;;5095780;28;20254;-58
2021/04/12 02:02:25;;;;;;;7.60;6.80;;;3.40;99.90;;;;;;5096242;28;20284;-55
2021/04/12 02:05:08;;;;;;;7.77;6.30;;;3.40;99.90;;;;;;5095356;28;20596;-57
2021/04/12 02:08:05;;;;;;;8.87;7.63;;;3.40;99.90;;;;;;5096055;28;20183;-57
2021/04/12 02:11:01;;;;;;;7.83;6.77;;;3.50;99.90;;;;;;5083000;28;20288;-57
2021/04/12 02:14:08;;;;;;;7.33;6.30;;;3.30;99.90;;;;;;5095826;28;20187;-64
2021/04/12 02:16:43;;;;;;;8.50;7.23;;;3.20;99.90;;;;;;5096014;28;20180;-65
2021/04/12 02:19:31;;;;;;;7.90;7.10;;;3.20;99.90;;;;;;5095823;28;20214;-64
2021/04/12 02:22:43;;;;;;;8.50;6.57;;;3.20;99.90;;;;;;5095623;28;20188;-64
2021/04/12 02:25:21;;;;;;;9.47;7.50;;;3.20;99.90;;;;;;5095451;28;20286;-64
2021/04/12 02:27:55;;;;;;;8.60;7.57;;;3.30;99.90;;;;;;5095761;28;20228;-64
2021/04/12 02:30:30;;;;;;;8.17;7.00;;;3.40;99.90;;;;;;5095745;28;20617;-64
2021/04/12 02:33:16;;;;;;;8.30;7.10;;;3.30;99.90;;;;;;5095239;28;20183;-64
2021/04/12 02:35:54;;;;;;;7.47;6.60;;;3.40;99.90;;;;;;5095655;28;20284;-64
2021/04/12 02:38:34;;;;;;;7.93;7.10;;;3.40;99.90;;;;;;5095208;28;20654;-64
2021/04/12 02:41:09;;;;;;;7.80;6.77;;;3.40;99.90;;;;;;5095629;28;20188;-64
2021/04/12 02:43:50;;;;;;;9.43;7.77;;;3.30;99.90;;;;;;5095177;28;20290;-64
2021/04/12 02:46:29;;;;;;;8.67;7.30;;;3.20;99.90;;;;;;5095499;28;20280;-64
2021/04/12 02:49:01;;;;;;;8.87;7.83;;;3.20;99.90;;;;;;5095445;28;20211;-64
2021/04/12 02:51:39;;;;;;;9.53;7.70;;;3.20;99.90;;;;;;5094808;28;20738;-63
2021/04/12 02:54:44;;;;;;;9.20;7.37;;;3.20;99.90;;;;;;5095323;28;20263;-64
2021/04/12 02:57:48;;;;;;;8.60;7.50;;;3.20;99.90;;;;;;5095121;28;20270;-64
2021/04/12 03:00:52;;;;;;;9.43;7.33;;;3.20;99.90;;;;;;5074726;28;20200;-64
2021/04/12 03:03:38;;;;;;;9.37;8.37;;;3.20;99.90;;;;;;5075149;28;20664;-64
2021/04/12 03:06:39;;;;;;;8.97;7.53;;;3.20;99.90;;;;;;5074849;28;20231;-64
2021/04/12 03:09:36;;;;;;;8.97;7.27;;;3.20;99.90;;;;;;5074655;28;20295;-62
2021/04/12 03:12:33;;;;;;;9.40;7.87;;;3.30;99.90;;;;;;5074387;28;20543;-64
2021/04/12 03:15:12;;;;;;;9.97;8.77;;;3.30;99.90;;;;;;5074302;28;20628;-63
2021/04/12 03:17:52;;;;;;;10.50;8.03;;;3.40;99.90;;;;;;5074578;28;20212;-64
2021/04/12 03:20:31;;;;;;;9.30;7.97;;;3.50;99.90;;;;;;5074156;28;20642;-64
2021/04/12 03:23:31;;;;;;;10.60;9.07;;;3.50;99.90;;;;;;5074513;28;20235;-63
2021/04/12 03:26:15;;;;;;;11.23;8.60;;;3.50;99.90;;;;;;5072069;28;20201;-63
2021/04/12 03:28:51;;;;;;;9.60;7.77;;;3.40;99.90;;;;;;5074359;28;20203;-64
2021/04/12 03:31:26;;;;;;;8.77;7.37;;;3.30;99.90;;;;;;5074385;28;20227;-64
2021/04/12 03:34:12;;;;;;;9.63;7.27;;;3.20;99.90;;;;;;5074482;28;20187;-64
2021/04/12 03:36:59;;;;;;;8.00;6.90;;;3.20;99.90;;;;;;5074025;28;20185;-64
2021/04/12 03:39:36;;;;;;;8.33;7.03;;;3.20;99.90;;;;;;5074049;28;20209;-63
2021/04/12 03:42:14;;;;;;;7.33;6.43;;;3.10;99.90;;;;;;5073999;28;20553;-63
2021/04/12 03:45:17;;;;;;;7.20;5.90;;;3.10;99.90;;;;;;5073132;28;20188;-63
2021/04/12 03:48:36;;;;;;;7.07;6.13;;;3.00;99.90;;;;;;5074048;28;20242;-63
2021/04/12 03:51:36;;;;;;;6.57;5.67;;;3.00;99.90;;;;;;5074455;28;20197;-63
2021/04/12 03:54:49;;;;;;;6.60;5.40;;;3.00;99.90;;;;;;5075505;28;20738;-63
2021/04/12 03:58:01;;;;;;;6.90;5.77;;;3.10;99.90;;;;;;5073820;28;20185;-63
2021/04/12 04:00:46;;;;;;;7.77;6.07;;;3.10;99.90;;;;;;5049596;28;20201;-64
2021/04/12 04:03:25;;;;;;;7.00;6.13;;;3.20;99.90;;;;;;5073274;28;20210;-63
2021/04/12 04:06:13;;;;;;;7.87;6.87;;;3.20;99.90;;;;;;5073389;28;20766;-63
2021/04/12 04:08:54;;;;;;;8.83;6.73;;;3.20;99.90;;;;;;5061329;28;20664;-63
2021/04/12 04:11:48;;;;;;;8.10;6.70;;;3.10;99.90;;;;;;5073665;28;20197;-63
2021/04/12 04:14:34;;;;;;;7.73;6.30;;;3.20;99.90;;;;;;5073548;28;20224;-63
2021/04/12 04:17:19;;;;;;;8.70;6.93;;;3.20;99.90;;;;;;5072300;28;20241;-64
2021/04/12 04:20:04;;;;;;;10.40;7.40;;;3.20;99.90;;;;;;5073151;28;20236;-64
2021/04/12 04:23:03;;;;;;;8.70;7.00;;;3.30;99.90;;;;;;5073311;28;20289;-64
2021/04/12 04:25:56;;;;;;;8.33;6.77;;;3.40;99.90;;;;;;5073013;28;20189;-63
2021/04/12 04:28:41;;;;;;;8.53;7.03;;;3.30;99.90;;;;;;5072912;28;20701;-65
2021/04/12 04:31:41;;;;;;;9.10;7.03;;;3.30;99.90;;;;;;5073355;28;20222;-64
2021/04/12 04:34:32;;;;;;;9.47;7.40;;;3.40;99.90;;;;;;5052536;28;20739;-63
2021/04/12 04:37:23;;;;;;;10.60;8.40;;;3.50;99.90;;;;;;5070336;28;20235;-63
2021/04/12 04:40:27;;;;;;;9.67;7.90;;;3.50;99.90;;;;;;5088573;28;20211;-63
2021/04/12 04:43:36;;;;;;;9.67;7.40;;;3.40;99.90;;;;;;5093392;28;20288;-63
2021/04/12 04:46:43;;;;;;;10.47;7.47;;;3.50;99.90;;;;;;5092931;28;20203;-64
2021/04/12 04:50:04;;;;;;;9.60;7.47;;;3.50;99.90;;;;;;5093233;28;20191;-64
2021/04/12 04:52:38;;;;;;;9.93;7.33;;;3.50;99.90;;;;;;5092831;28;20265;-62
2021/04/12 04:55:31;;;;;;;10.70;7.93;;;3.60;99.90;;;;;;5092641;28;20620;-64
2021/04/12 04:58:08;;;;;;;10.53;8.13;;;3.60;99.90;;;;;;5092410;28;20227;-63
2021/04/12 05:00:54;;;;;;;10.87;7.97;;;3.70;99.90;;;;;;5092877;28;20193;-63
2021/04/12 05:03:57;;;;;;;10.80;8.20;;;3.60;99.90;;;;;;5092990;28;20279;-63
2021/04/12 05:06:48;;;;;;;11.03;7.60;;;3.70;99.90;;;;;;5061417;28;20270;-64
2021/04/12 05:09:40;;;;;;;10.97;7.73;;;3.80;99.90;;;;;;5092134;28;20285;-63
2021/04/12 05:12:19;;;;;;;10.83;8.40;;;3.80;99.90;;;;;;5092632;28;20188;-62
2021/04/12 05:14:55;;;;;;;10.67;8.33;;;3.90;99.90;;;;;;5092460;28;20221;-63
2021/04/12 05:17:52;;;;;;;10.90;8.30;;;3.80;99.90;;;;;;5092769;28;20244;-58
2021/04/12 05:20:30;;;;;;;11.80;8.50;;;3.90;99.90;;;;;;5092142;28;20208;-57
2021/04/12 05:23:23;;;;;;;10.27;7.77;;;4.00;99.90;;;;;;5092385;28;20180;-56
2021/04/12 05:26:16;;;;;;;8.57;7.30;;;4.10;99.90;;;;;;5092427;28;20265;-56
2021/04/12 05:29:07;;;;;;;9.80;7.90;;;4.20;99.90;;;;;;5092568;28;20270;-57
2021/04/12 05:31:52;;;;;;;10.33;7.50;;;4.20;99.90;;;;;;5092753;28;20290;-57
2021/04/12 05:34:53;;;;;;;9.50;7.57;;;4.20;99.90;;;;;;5092549;28;20190;-59
2021/04/12 05:37:44;;;;;;;11.23;8.10;;;4.40;99.90;;;;;;5092164;28;20214;-57
2021/04/12 05:40:46;;;;;;;9.80;7.57;;;4.50;99.90;;;;;;5092361;28;20277;-58
2021/04/12 05:43:49;;;;;;;9.03;7.30;;;4.60;99.90;;;;;;5092369;28;20281;-59
2021/04/12 05:46:28;;;;;;;10.50;7.67;;;4.80;99.90;;;;;;5081373;28;20300;-57
2021/04/12 05:49:23;;;;;;;10.17;7.13;;;4.90;99.90;;;;;;5092272;28;20514;-56
2021/04/12 05:52:16;;;;;;;9.87;7.43;;;4.80;99.90;;;;;;5091460;28;20608;-58
2021/04/12 05:55:25;;;;;;;9.30;7.40;;;4.90;99.90;;;;;;5091799;28;20667;-58
2021/04/12 05:58:19;;;;;;;8.60;6.67;;;4.80;99.90;;;;;;5034709;28;20200;-59
2021/04/12 06:01:06;;;;;;;9.67;7.53;;;4.90;99.90;;;;;;5090205;28;20281;-59
2021/04/12 06:03:43;;;;;;;10.60;7.53;;;4.80;99.90;;;;;;5071824;28;20200;-59
2021/04/12 06:06:55;;;;;;;11.83;6.80;;;5.00;99.90;;;;;;5074168;28;20232;-58
2021/04/12 06:09:39;;;;;;;6.93;5.57;;;5.20;99.90;;;;;;5089886;28;20202;-57
2021/04/12 06:12:37;;;;;;;6.67;5.40;;;5.40;99.90;;;;;;5095691;28;20252;-58
2021/04/12 06:15:41;;;;;;;9.87;6.10;;;5.30;99.90;;;;;;5095822;28;20190;-57
2021/04/12 06:18:41;;;;;;;8.00;5.17;;;5.40;99.90;;;;;;5071257;28;20308;-57
2021/04/12 06:21:24;;;;;;;7.67;5.37;;;5.30;99.90;;;;;;5082971;28;20622;-57
2021/04/12 06:24:30;;;;;;;6.40;4.90;;;5.50;99.90;;;;;;5092359;28;20275;-58
2021/04/12 06:27:24;;;;;;;9.50;5.73;;;5.60;99.90;;;;;;5091718;28;20284;-60
2021/04/12 06:30:05;;;;;;;7.27;5.10;;;5.60;99.90;;;;;;5092452;28;20199;-59
2021/04/12 06:33:07;;;;;;;5.23;4.60;;;5.80;99.90;;;;;;5092314;28;20226;-54
2021/04/12 06:36:07;;;;;;;5.20;4.50;;;6.00;99.90;;;;;;5078898;28;20286;-59
2021/04/12 06:39:11;;;;;;;7.17;4.60;;;5.90;99.90;;;;;;5090397;28;20319;-60
2021/04/12 06:42:16;;;;;;;6.37;4.93;;;5.70;99.90;;;;;;5041364;28;20502;-60
2021/04/12 06:45:04;;;;;;;7.33;4.90;;;5.70;99.90;;;;;;5038506;28;20218;-60
2021/04/12 06:48:19;;;;;;;5.60;4.60;;;5.80;99.90;;;;;;5090028;28;20315;-58
2021/04/12 06:51:25;;;;;;;5.53;4.87;;;5.90;99.90;;;;;;5084073;28;20195;-56
2021/04/12 06:54:25;;;;;;;6.40;4.90;;;5.90;99.90;;;;;;5071359;28;20204;-57
2021/04/12 06:57:31;;;;;;;5.80;4.80;;;5.60;99.90;;;;;;5072477;28;20277;-60
2021/04/12 07:00:39;;;;;;;5.37;4.13;;;5.60;99.90;;;;;;5091371;28;20232;-60
2021/04/12 07:03:55;;;;;;;5.07;4.30;;;5.60;99.90;;;;;;5083703;28;20708;-61
2021/04/12 07:06:44;;;;;;;6.10;4.23;;;5.70;99.90;;;;;;5091275;28;20270;-57
2021/04/12 07:09:54;;;;;;;6.30;4.27;;;5.60;99.90;;;;;;5091540;28;20215;-59
2021/04/12 07:13:13;;;;;;;7.23;5.10;;;5.70;99.90;;;;;;5028511;28;20290;-57
2021/04/12 07:16:39;;;;;;;5.20;4.23;;;5.50;99.90;;;;;;5028081;28;20299;-59
2021/04/12 07:19:43;;;;;;;5.10;4.37;;;5.70;99.90;;;;;;4948948;28;20737;-60
2021/04/12 07:22:39;;;;;;;6.00;4.17;;;5.80;99.90;;;;;;5008712;28;20200;-58
2021/04/12 07:25:35;;;;;;;7.10;4.30;;;5.80;99.90;;;;;;5071001;28;20243;-57
2021/04/12 07:28:35;;;;;;;8.90;4.90;;;6.10;99.90;;;;;;5069809;28;20242;-55
2021/04/12 07:31:53;;;;;;;6.60;4.43;;;6.30;99.90;;;;;;5070123;28;20640;-58
2021/04/12 07:35:00;;;;;;;5.30;4.03;;;6.60;99.90;;;;;;5070315;28;20264;-58
2021/04/12 07:38:00;;;;;;;4.53;3.67;;;6.70;99.90;;;;;;5070089;28;20698;-59
2021/04/12 07:41:03;;;;;;;6.37;4.03;;;6.80;99.90;;;;;;5060461;28;20298;-59
2021/04/12 07:44:17;;;;;;;4.13;3.70;;;6.60;99.90;;;;;;5070239;28;20249;-58
2021/04/12 07:47:22;;;;;;;5.53;3.97;;;6.60;99.90;;;;;;5070324;28;20242;-59
2021/04/12 07:50:30;;;;;;;7.63;3.63;;;6.70;99.90;;;;;;5089326;28;20215;-57
2021/04/12 07:53:36;;;;;;;4.87;3.50;;;6.50;99.90;;;;;;5090191;28;20271;-57
2021/04/12 07:56:39;;;;;;;5.57;4.17;;;6.70;99.90;;;;;;5089210;28;20203;-58
2021/04/12 07:59:42;;;;;;;5.40;3.70;;;6.70;99.90;;;;;;5087748;28;20298;-58
2021/04/12 08:02:40;;;;;;;5.53;3.77;;;6.70;99.90;;;;;;5070760;28;20227;-57
2021/04/12 08:05:44;;;;;;;6.47;4.03;;;6.60;99.90;;;;;;5087934;28;20283;-59
2021/04/12 08:08:41;;;;;;;8.67;3.60;;;6.50;99.90;;;;;;5088718;28;20192;-58
2021/04/12 08:11:56;;;;;;;5.50;4.13;;;6.40;99.90;;;;;;5090054;28;20242;-59
2021/04/12 08:15:01;;;;;;;6.43;4.50;;;6.40;99.90;;;;;;5090237;28;20283;-59
2021/04/12 08:17:54;;;;;;;5.53;4.13;;;6.80;99.90;;;;;;5089785;28;20745;-57
2021/04/12 08:21:04;;;;;;;4.30;3.77;;;6.90;99.90;;;;;;5069090;28;20206;-57
2021/04/12 08:24:06;;;;;;;6.50;3.87;;;6.80;99.90;;;;;;5069931;28;20283;-57
2021/04/12 08:27:10;;;;;;;5.03;3.80;;;6.70;99.90;;;;;;5067862;28;20318;-57
2021/04/12 08:30:35;;;;;;;5.60;4.20;;;6.80;99.90;;;;;;5069344;28;20186;-55
2021/04/12 08:33:35;;;;;;;7.87;3.77;;;6.70;99.90;;;;;;5069244;28;20215;-58
2021/04/12 08:36:40;;;;;;;5.30;4.23;;;6.90;99.90;;;;;;5069134;28;20682;-59
2021/04/12 08:39:49;;;;;;;4.27;3.83;;;7.00;99.90;;;;;;5069669;28;20251;-58
2021/04/12 08:43:20;;;;;;;6.97;4.90;;;7.00;99.90;;;;;;5082124;28;20241;-60
2021/04/12 08:46:21;;;;;;;4.47;3.90;;;7.00;99.90;;;;;;5089893;28;20302;-58
2021/04/12 08:49:09;;;;;;;5.53;4.00;;;7.00;99.90;;;;;;5089826;28;20229;-57
2021/04/12 08:51:56;;;;;;;4.73;3.80;;;7.40;99.90;;;;;;5089378;28;20180;-60
2021/04/12 08:55:08;;;;;;;5.77;3.83;;;7.80;99.90;;;;;;5089538;28;20696;-59
2021/04/12 08:57:56;;;;;;;6.40;4.50;;;8.00;99.90;;;;;;5027062;28;20186;-59
2021/04/12 09:00:57;;;;;;;9.07;4.20;;;7.90;99.90;;;;;;5027025;28;20210;-60
2021/04/12 09:03:50;;;;;;;5.93;3.80;;;8.00;99.90;;;;;;5083477;28;20814;-56
2021/04/12 09:07:04;;;;;;;5.77;3.77;;;7.80;99.90;;;;;;5088904;28;20203;-59
2021/04/12 09:10:10;;;;;;;6.63;3.70;;;7.80;99.90;;;;;;5026868;28;20288;-57
2021/04/12 09:13:22;;;;;;;5.80;3.63;;;7.90;99.90;;;;;;5084333;28;20622;-57
2021/04/12 09:16:11;;;;;;;6.60;4.20;;;8.00;99.90;;;;;;5089634;28;20287;-57
2021/04/12 09:19:05;;;;;;;4.00;3.13;;;8.10;99.90;;;;;;5089055;28;20681;-57
2021/04/12 09:22:22;;;;;;;3.90;3.53;;;7.80;99.90;;;;;;5086179;28;20262;-59
2021/04/12 09:25:18;;;;;;;4.93;3.30;;;7.50;99.90;;;;;;5089156;28;20203;-57
2021/04/12 09:28:04;;;;;;;3.93;3.13;;;7.50;99.90;;;;;;5088915;28;20298;-60
2021/04/12 09:31:06;;;;;;;3.87;2.90;;;7.50;99.90;;;;;;5089021;28;20920;-59
2021/04/12 09:34:13;;;;;;;6.57;3.37;;;7.30;99.90;;;;;;5089003;28;20735;-60
2021/04/12 09:36:58;;;;;;;6.43;3.33;;;7.10;99.90;;;;;;5082318;28;20318;-59
2021/04/12 09:39:49;;;;;;;6.20;3.67;;;6.90;99.90;;;;;;5089361;28;20243;-60
2021/04/12 09:42:47;;;;;;;4.27;3.37;;;6.80;99.90;;;;;;5089905;28;20194;-60
2021/04/12 09:45:46;;;;;;;4.23;3.23;;;6.90;99.90;;;;;;5092837;28;20260;-59
2021/04/12 09:48:53;;;;;;;5.73;3.40;;;7.10;99.90;;;;;;5092767;28;20728;-60
2021/04/12 09:51:53;;;;;;;4.63;3.60;;;7.30;99.90;;;;;;5092681;28;20190;-59
2021/04/12 09:54:54;;;;;;;4.70;3.00;;;7.60;99.90;;;;;;5093134;28;20191;-58
2021/04/12 09:57:57;;;;;;;6.27;4.03;;;7.60;99.90;;;;;;5092592;28;20211;-59
2021/04/12 10:00:45;;;;;;;6.40;3.67;;;7.20;99.90;;;;;;5092280;28;20671;-59
2021/04/12 10:03:41;;;;;;;3.50;3.20;;;6.90;99.90;;;;;;5092724;28;20224;-55
2021/04/12 10:06:37;;;;;;;7.10;3.40;;;6.90;99.90;;;;;;5091845;28;20224;-56
2021/04/12 10:09:31;;;;;;;4.97;3.27;;;7.00;99.90;;;;;;5092531;28;20616;-59
2021/04/12 10:12:21;;;;;;;5.17;3.50;;;7.10;99.90;;;;;;5092053;28;20206;-59
2021/04/12 10:14:52;;;;;;;4.67;3.67;;;7.20;99.90;;;;;;5087599;28;20208;-58
2021/04/12 10:17:26;;;;;;;6.47;4.00;;;7.20;99.90;;;;;;5092142;28;20185;-60
2021/04/12 10:19:57;;;;;;;5.33;3.40;;;7.30;99.90;;;;;;5091647;28;20220;-59
2021/04/12 10:22:41;;;;;;;6.17;3.73;;;7.80;99.90;;;;;;5091964;28;20196;-59
2021/04/12 10:25:14;;;;;;;5.83;4.00;;;8.20;99.90;;;;;;5092196;28;20276;-65
2021/04/12 10:27:46;;;;;;;6.13;3.50;;;8.30;99.90;;;;;;5091901;28;20255;-64
2021/04/12 10:30:20;;;;;;;6.87;3.77;;;8.30;99.90;;;;;;5092280;28;20662;-63
2021/04/12 10:32:51;;;;;;;5.33;3.70;;;8.30;99.90;;;;;;5091321;28;20207;-64
2021/04/12 10:35:22;;;;;;;4.27;3.33;;;8.40;99.90;;;;;;5090662;28;20188;-64
2021/04/12 10:38:02;;;;;;;5.53;3.37;;;8.20;99.90;;;;;;5092055;28;20216;-65
2021/04/12 10:40:32;;;;;;;4.17;3.40;;;8.20;99.90;;;;;;5091679;28;20310;-63
2021/04/12 10:43:05;;;;;;;3.90;3.13;;;8.30;99.90;;;;;;5091359;28;20181;-63
2021/04/12 10:45:39;;;;;;;5.00;3.17;;;8.80;99.90;;;;;;5092050;28;20284;-63
2021/04/12 10:48:18;;;;;;;3.67;3.37;;;9.30;99.90;;;;;;5091750;28;20221;-60
2021/04/12 10:50:59;;;;;;;4.73;3.20;;;9.20;99.90;;;;;;5089788;28;20283;-67
2021/04/12 10:53:40;;;;;;;4.97;3.10;;;9.40;99.90;;;;;;5088675;28;20195;-67
2021/04/12 10:56:13;;;;;;;5.73;3.70;;;9.50;99.90;;;;;;5088672;28;20270;-67
2021/04/12 10:58:55;;;;;;;6.57;3.70;;;9.40;99.90;;;;;;5088822;28;20245;-70
2021/04/12 11:01:32;;;;;;;4.63;3.43;;;9.30;99.90;;;;;;5091773;28;20513;-65
2021/04/12 11:04:14;;;;;;;5.97;3.83;;;9.30;99.90;;;;;;5091282;28;20188;-65
2021/04/12 11:06:54;;;;;;;7.23;3.90;;;9.20;99.90;;;;;;5091440;28;20249;-66
2021/04/12 11:09:38;;;;;;;4.37;3.17;;;9.40;99.90;;;;;;5091244;28;20181;-66
2021/04/12 11:12:14;;;;;;;3.80;3.50;;;9.60;99.90;;;;;;5090454;28;20191;-65
2021/04/12 11:14:49;;;;;;;4.53;3.17;;;9.60;99.90;;;;;;5090957;28;20273;-69
2021/04/12 11:17:33;;;;;;;3.93;2.90;;;9.10;99.90;;;;;;5091256;28;20551;-71
2021/04/12 11:20:11;;;;;;;5.80;3.47;;;9.10;99.90;;;;;;5090396;28;20691;-68
2021/04/12 11:22:48;;;;;;;4.93;2.80;;;9.00;99.90;;;;;;5090833;28;20557;-70
2021/04/12 11:25:19;;;;;;;4.93;2.90;;;8.90;99.90;;;;;;5090845;28;20223;-65
2021/04/12 11:28:19;;;;;;;5.50;2.93;;;8.50;99.90;;;;;;5090747;28;20228;-66
2021/04/12 11:30:54;;;;;;;5.67;2.70;;;8.20;99.90;;;;;;5089698;28;20224;-66
2021/04/12 11:33:56;;;;;;;4.53;2.50;;;8.00;99.90;;;;;;5090766;28;20312;-66
2021/04/12 11:36:33;;;;;;;3.53;2.77;;;8.00;99.90;;;;;;5082405;28;20215;-66
2021/04/12 11:39:08;;;;;;;6.90;2.73;;;8.30;99.90;;;;;;5070221;28;20266;-67
2021/04/12 11:41:42;;;;;;;4.20;2.50;;;8.60;99.90;;;;;;5070575;28;20185;-67
2021/04/12 11:44:13;;;;;;;3.57;2.53;;;8.90;99.90;;;;;;5082929;28;20191;-67
2021/04/12 11:47:14;;;;;;;9.17;3.00;;;9.10;99.90;;;;;;5090957;28;20234;-69
2021/04/12 11:50:01;;;;;;;3.80;2.90;;;8.90;99.90;;;;;;5090702;28;20239;-67
2021/04/12 11:52:36;;;;;;;4.63;3.57;;;8.90;99.90;;;;;;5091083;28;20208;-68
2021/04/12 11:55:15;;;;;;;4.10;3.00;;;8.90;99.90;;;;;;5091529;28;20183;-68
2021/04/12 11:57:48;;;;;;;4.27;3.20;;;9.00;99.90;;;;;;5091688;28;20651;-67
2021/04/12 12:00:19;;;;;;;6.27;3.67;;;9.00;99.90;;;;;;5090950;28;20204;-64
2021/04/12 12:02:56;;;;;;;5.73;3.73;;;9.10;99.90;;;;;;5090457;28;20271;-65
2021/04/12 12:05:32;;;;;;;4.10;3.70;;;9.30;99.90;;;;;;5089939;28;20180;-68
2021/04/12 12:08:06;;;;;;;4.27;3.20;;;9.60;99.90;;;;;;5090140;28;20551;-68
2021/04/12 12:10:48;;;;;;;5.33;3.23;;;9.70;99.90;;;;;;5076781;28;20224;-70
2021/04/12 12:13:34;;;;;;;4.77;3.40;;;10.00;99.90;;;;;;5090232;28;20237;-60
2021/04/12 12:16:13;;;;;;;3.97;3.27;;;10.30;99.90;;;;;;5090161;28;20190;-60
2021/04/12 12:18:48;;;;;;;4.87;3.07;;;10.60;99.90;;;;;;5090107;28;20213;-61
2021/04/12 12:21:20;;;;;;;4.73;3.33;;;10.70;99.90;;;;;;5089236;28;20278;-67
2021/04/12 12:23:57;;;;;;;3.80;3.07;;;10.80;99.90;;;;;;5090234;28;20249;-68
2021/04/12 12:26:29;;;;;;;4.17;3.50;;;10.60;99.90;;;;;;5089206;28;20781;-66
2021/04/12 12:29:26;;;;;;;4.80;3.43;;;10.80;99.90;;;;;;5090119;28;20203;-64
2021/04/12 12:32:21;;;;;;;3.73;3.43;;;10.80;99.90;;;;;;5086154;28;20280;-64
2021/04/12 12:35:11;;;;;;;4.50;2.73;;;10.70;99.90;;;;;;5089307;28;20193;-64
2021/04/12 12:38:05;;;;;;;4.60;2.73;;;10.50;99.90;;;;;;5086674;28;20719;-60
2021/04/12 12:40:42;;;;;;;4.43;3.40;;;10.40;99.90;;;;;;5086527;28;20220;-64
2021/04/12 12:43:13;;;;;;;4.83;3.60;;;10.20;99.90;;;;;;5089657;28;20211;-59
2021/04/12 12:45:41;;;;;;;5.10;3.70;;;10.10;99.90;;;;;;5090094;28;20287;-63
2021/04/12 12:48:15;;;;;;;3.90;3.60;;;9.90;99.90;;;;;;5089376;28;20616;-70
2021/04/12 12:50:46;;;;;;;6.37;3.40;;;9.60;99.90;;;;;;5089909;28;20180;-66
2021/04/12 12:53:20;;;;;;;4.67;3.70;;;9.50;99.90;;;;;;5089780;28;20194;-73
2021/04/12 12:55:51;;;;;;;5.27;3.23;;;9.20;99.90;;;;;;5089692;28;20212;-65
2021/04/12 12:58:21;;;;;;;3.53;3.20;;;9.00;99.90;;;;;;5089632;28;20267;-68
2021/04/12 13:00:51;;;;;;;5.43;3.60;;;8.80;99.90;;;;;;5090334;28;20219;-79
2021/04/12 13:03:21;;;;;;;4.73;3.57;;;8.50;99.90;;;;;;5090144;28;20231;-76
2021/04/12 13:05:50;;;;;;;5.20;4.23;;;8.50;99.90;;;;;;5089274;28;20519;-66
2021/04/12 13:08:22;;;;;;;6.00;4.13;;;8.70;99.90;;;;;;5089420;28;20235;-64
2021/04/12 13:10:53;;;;;;;4.30;3.90;;;9.00;99.90;;;;;;5089366;28;20236;-65
2021/04/12 13:13:28;;;;;;;5.47;4.50;;;9.30;99.90;;;;;;5089097;28;20582;-67
2021/04/12 13:15:58;;;;;;;5.33;3.77;;;9.50;99.90;;;;;;5090003;28;20241;-68
2021/04/12 13:18:29;;;;;;;4.43;4.07;;;9.50;99.90;;;;;;5093604;28;20283;-68
2021/04/12 13:21:13;;;;;;;4.00;3.70;;;9.50;99.90;;;;;;5093019;28;20219;-71
2021/04/12 13:23:53;;;;;;;5.60;3.70;;;9.60;99.90;;;;;;5089383;28;20194;-61
2021/04/12 13:26:30;;;;;;;4.60;3.30;;;9.60;99.90;;;;;;5086192;28;20700;-62
2021/04/12 13:29:05;;;;;;;3.87;3.30;;;9.70;99.90;;;;;;5087988;28;20729;-68
2021/04/12 13:31:38;;;;;;;5.60;3.57;;;9.90;99.90;;;;;;5093535;28;20274;-70
2021/04/12 13:34:12;;;;;;;4.20;3.73;;;9.90;99.90;;;;;;5090622;28;20212;-70
2021/04/12 13:36:41;;;;;;;3.47;3.17;;;9.90;99.90;;;;;;5088693;28;20595;-68
2021/04/12 13:39:14;;;;;;;4.97;3.20;;;9.90;99.90;;;;;;5093490;28;20261;-63
2021/04/12 13:41:46;;;;;;;3.50;3.20;;;10.20;99.90;;;;;;5093030;28;20310;-68
2021/04/12 13:44:16;;;;;;;4.53;3.30;;;10.30;99.90;;;;;;5093331;28;20271;-66
2021/04/12 13:46:56;;;;;;;3.73;3.40;;;10.30;99.90;;;;;;5093208;28;20227;-66
2021/04/12 13:49:32;;;;;;;3.47;3.17;;;10.40;99.90;;;;;;5093075;28;20213;-62
2021/04/12 13:52:05;;;;;;;2.87;2.50;;;10.40;99.90;;;;;;5092196;28;20230;-65
2021/04/12 13:54:41;;;;;;;4.07;2.30;;;10.20;99.90;;;;;;5092795;28;20220;-63
2021/04/12 13:57:19;;;;;;;3.60;2.37;;;9.90;99.90;;;;;;5092348;28;20184;-63
2021/04/12 13:59:51;;;;;;;3.67;2.17;;;9.60;99.90;;;;;;5092453;28;20206;-68
2021/04/12 14:02:25;;;;;;;3.53;2.07;;;9.40;99.90;;;;;;5092732;28;20271;-65
2021/04/12 14:04:54;;;;;;;3.07;2.20;;;9.10;99.90;;;;;;5092935;28;20184;-65
2021/04/12 14:07:40;;;;;;;3.53;2.30;;;9.10;99.90;;;;;;5092590;28;20200;-62
2021/04/12 14:10:13;;;;;;;2.97;2.40;;;9.00;99.90;;;;;;5090553;28;20199;-69
2021/04/12 14:12:53;;;;;;;3.57;2.33;;;9.10;99.90;;;;;;5092647;28;20583;-61
2021/04/12 14:15:31;;;;;;;4.33;2.50;;;9.10;99.90;;;;;;5084955;28;20238;-65
2021/04/12 14:18:03;;;;;;;2.60;2.17;;;9.10;99.90;;;;;;5074964;28;20213;-65
2021/04/12 14:20:36;;;;;;;3.40;2.33;;;9.20;99.90;;;;;;5074654;28;20216;-65
2021/04/12 14:23:16;;;;;;;3.07;2.20;;;9.40;99.90;;;;;;5074635;28;20307;-65
2021/04/12 14:25:44;;;;;;;4.17;2.00;;;9.60;99.90;;;;;;5075017;28;20291;-65
2021/04/12 14:28:16;;;;;;;3.27;1.70;;;9.70;99.90;;;;;;5081799;28;20716;-64
2021/04/12 14:30:46;;;;;;;4.93;1.80;;;9.70;99.90;;;;;;5094941;28;20191;-64
2021/04/12 14:33:21;;;;;;;1.60;1.40;;;9.70;99.90;;;;;;5095176;28;20192;-65
2021/04/12 14:35:57;;;;;;;1.60;1.47;;;9.60;99.90;;;;;;5094852;28;20180;-64
2021/04/12 14:38:26;;;;;;;3.43;1.30;;;9.60;99.90;;;;;;5094780;28;20289;-64
2021/04/12 14:41:01;;;;;;;2.60;1.27;;;9.60;99.90;;;;;;5094696;28;20342;-64
2021/04/12 14:43:36;;;;;;;1.40;1.13;;;9.50;99.90;;;;;;5094735;28;20274;-65